Riverside, Ohio
Current Conditions -  °F | °C
As of 11:58 AM on Thursday 23 Oct 2014 (Local Time) from KFFO Reporting Station
Clear Clear  
Wind Chill: 52°   Ceiling: Unl
Heat Index: 52°   Visibility: 10mi
Dew Point: 42°   Wind: 0mph
Humidity: 68%   Direction: NA
Pressure: 30.25"   Gusts: NA
Location:  39.7649°N, 84.0863°W
Report Text: KFFO 231558Z AUTO 00000KT 10SM CLR 11/05 A3025 RMK AO2 SLP249 T01110053
Loading
Personal Weather Stations






























Interactive Weather Map
Tropical Storm Tracking
New forecast layout! Learn more

10-Day Weather Forecast

Advertisements
Track Severe Weather on mobile